OOCL Long Beach — VRYO4 — position and weather

sailwx.info

Track history (hours):
 
Tides and Currents Weather Stations Pressure Air Temp Water Temp Dewpoint Dewpoint Depression Visibility Wind Speed Wind Dir Waves Ship Positions

OOCL Long Beach

Last reported at 2014-Nov-28 19:30 UTC. Time now 2014-Nov-28 20:20 UTC.
Position N 34°37' W 123°09'.

Length 323 m; beam 42.8 m; draft 14.5 m.

Type: Cargo ship. MMSI: 477316000.

Date/timePositionNaut miles runAvg speedWind from/ knotsBaromVisibWave heightAir tempDewpointWater temp
2014-Nov-28 19:30N 34°37' W 123°09'1010.3
2014-Nov-28 18:33N 34°41' W 123°20'1010.5
2014-Nov-28 17:33N 34°46' W 123°31'1110.9
2014-Nov-28 16:33N 34°51' W 123°43'1110.6
2014-Nov-28 15:33N 34°56' W 123°54'1212.4
2014-Nov-28 14:33N 35°01' W 124°08'1212.4
2014-Nov-28 13:33N 35°07' W 124°21'1312.5
2014-Nov-28 12:33N 35°13' W 124°35'1312.6
2014-Nov-28 11:33N 35°18' W 124°49'1212.3
2014-Nov-28 10:33N 35°24' W 125°02'1312.6
2014-Nov-28 09:33N 35°29' W 125°16'1312.5
2014-Nov-28 08:33N 35°35' W 125°30'1313.0
2014-Nov-28 07:33N 35°41' W 125°44'1313.3
2014-Nov-28 06:33N 35°47' W 125°59'1313.1
2014-Nov-28 05:33N 35°53' W 126°13'2813.0
2014-Nov-28 03:26N 36°03' W 126°45'3812.6
2014-Nov-28 00:27N 36°13' W 127°29'1212.5
2014-Nov-27 23:32N 36°17' W 127°43'1312.0
2014-Nov-27 22:29N 36°20' W 127°58'1111.7
2014-Nov-27 21:33N 36°23' W 128°11'1111.5
2014-Nov-27 20:33N 36°26' W 128°25'1211.9
2014-Nov-27 19:33N 36°29' W 128°40'1412.0
2014-Nov-27 18:21N 36°33' W 128°57'2312.2
2014-Nov-27 16:30N 36°38' W 129°24'  
Track history (hours):
 
Tides and Currents Weather Stations Pressure Air Temp Water Temp Dewpoint Dewpoint Depression Visibility Wind Speed Wind Dir Waves Ship Positions

OOCL Long Beach

Last reported at 2014-Nov-28 19:30 UTC. Time now 2014-Nov-28 20:20 UTC.
Position N 34°37' W 123°09'.

Length 323 m; beam 42.8 m; draft 14.5 m.

Type: Cargo ship. MMSI: 477316000.

Date/timePositionNaut miles runAvg speedWind from/ knotsBaromVisibWave heightAir tempDewpointWater temp
2014-Nov-28 19:30N 34°37' W 123°09'1010.3
2014-Nov-28 18:33N 34°41' W 123°20'1010.5
2014-Nov-28 17:33N 34°46' W 123°31'1110.9
2014-Nov-28 16:33N 34°51' W 123°43'1110.6
2014-Nov-28 15:33N 34°56' W 123°54'1212.4
2014-Nov-28 14:33N 35°01' W 124°08'1212.4
2014-Nov-28 13:33N 35°07' W 124°21'1312.5
2014-Nov-28 12:33N 35°13' W 124°35'1312.6
2014-Nov-28 11:33N 35°18' W 124°49'1212.3
2014-Nov-28 10:33N 35°24' W 125°02'1312.6
2014-Nov-28 09:33N 35°29' W 125°16'1312.5
2014-Nov-28 08:33N 35°35' W 125°30'1313.0
2014-Nov-28 07:33N 35°41' W 125°44'1313.3
2014-Nov-28 06:33N 35°47' W 125°59'1313.1
2014-Nov-28 05:33N 35°53' W 126°13'2813.0
2014-Nov-28 03:26N 36°03' W 126°45'3812.6
2014-Nov-28 00:27N 36°13' W 127°29'1212.5
2014-Nov-27 23:32N 36°17' W 127°43'1312.0
2014-Nov-27 22:29N 36°20' W 127°58'1111.7
2014-Nov-27 21:33N 36°23' W 128°11'1111.5
2014-Nov-27 20:33N 36°26' W 128°25'1211.9
2014-Nov-27 19:33N 36°29' W 128°40'1412.0
2014-Nov-27 18:21N 36°33' W 128°57'2312.2
2014-Nov-27 16:30N 36°38' W 129°24'  

Dump ship's entire track history